GLO2038 SBGL-SBPS
Flight info
| Callsign | GLO2038 |
|---|---|
| Flight time | 1h 11m |
| Altitude | 37000 |
| Route | UTMIP1A IMBAP UZ42 SIRAP DCT OSUNO OSUNO1A |
| Aircraft | B738/M-SDFGIKLORWXY/LB1 |
Departure
| Time | 2026-04-21 17:30 |
|---|---|
| Airport | Rio Galeão – Tom Jobim International Airport (SBGL) |
Arrival
| Time | 2026-04-21 18:41 |
|---|---|
| Airport | Porto Seguro International Airport (SBPS) |
| Time | Latitude | Longitude | Altitude | Speed | Heading |
|---|---|---|---|---|---|
| 2026-04-21 17:12 | -22.81590 | -43.24689 | 25 ft | 0 kts | 26° |
| 2026-04-21 17:20 | -22.81594 | -43.24691 | 25 ft | 3 kts | 25° |
| 2026-04-21 17:20 | -22.81618 | -43.24701 | 31 ft | 4 kts | 10° |
| 2026-04-21 17:21 | -22.81644 | -43.24701 | 28 ft | 4 kts | 332° |
| 2026-04-21 17:21 | -22.81654 | -43.24693 | 29 ft | 0 kts | 303° |
| 2026-04-21 17:23 | -22.81653 | -43.24694 | 30 ft | 2 kts | 303° |
| 2026-04-21 17:23 | -22.81638 | -43.24719 | 27 ft | 6 kts | 303° |
| 2026-04-21 17:23 | -22.81607 | -43.24773 | 26 ft | 10 kts | 301° |
| 2026-04-21 17:24 | -22.81566 | -43.24834 | 29 ft | 10 kts | 313° |
| 2026-04-21 17:24 | -22.81520 | -43.24889 | 28 ft | 10 kts | 311° |
| 2026-04-21 17:24 | -22.81486 | -43.24949 | 29 ft | 9 kts | 296° |
| 2026-04-21 17:24 | -22.81456 | -43.25010 | 28 ft | 9 kts | 298° |
| 2026-04-21 17:25 | -22.81422 | -43.25066 | 26 ft | 9 kts | 304° |
| 2026-04-21 17:25 | -22.81389 | -43.25120 | 26 ft | 8 kts | 303° |
| 2026-04-21 17:25 | -22.81348 | -43.25165 | 25 ft | 8 kts | 313° |
| 2026-04-21 17:25 | -22.81312 | -43.25212 | 28 ft | 8 kts | 304° |
| 2026-04-21 17:26 | -22.81280 | -43.25261 | 28 ft | 8 kts | 306° |
| 2026-04-21 17:26 | -22.81242 | -43.25306 | 25 ft | 8 kts | 321° |
| 2026-04-21 17:26 | -22.81196 | -43.25343 | 25 ft | 8 kts | 326° |
| 2026-04-21 17:26 | -22.81137 | -43.25374 | 28 ft | 11 kts | 342° |
| 2026-04-21 17:27 | -22.81048 | -43.25383 | 25 ft | 15 kts | 0° |
| 2026-04-21 17:27 | -22.80954 | -43.25412 | 25 ft | 15 kts | 298° |
| 2026-04-21 17:27 | -22.80911 | -43.25512 | 26 ft | 14 kts | 297° |
| 2026-04-21 17:27 | -22.80848 | -43.25585 | 26 ft | 14 kts | 355° |
| 2026-04-21 17:28 | -22.80762 | -43.25544 | 25 ft | 14 kts | 26° |
| 2026-04-21 17:28 | -22.80672 | -43.25474 | 25 ft | 17 kts | 42° |
| 2026-04-21 17:28 | -22.80572 | -43.25382 | 26 ft | 20 kts | 36° |
| 2026-04-21 17:28 | -22.80449 | -43.25419 | 27 ft | 19 kts | 330° |
| 2026-04-21 17:29 | -22.80335 | -43.25492 | 27 ft | 19 kts | 328° |
| 2026-04-21 17:29 | -22.80219 | -43.25490 | 27 ft | 18 kts | 33° |
| 2026-04-21 17:29 | -22.80150 | -43.25385 | 30 ft | 17 kts | 76° |
| 2026-04-21 17:29 | -22.80082 | -43.25122 | 25 ft | 66 kts | 74° |
| 2026-04-21 17:30 | -22.79902 | -43.24428 | 26 ft | 122 kts | 75° |
| 2026-04-21 17:30 | -22.79632 | -43.23377 | 27 ft | 166 kts | 73° |
| 2026-04-21 17:30 | -22.79308 | -43.22099 | 278 ft | 185 kts | 78° |
| 2026-04-21 17:30 | -22.79010 | -43.20737 | 881 ft | 187 kts | 81° |
| 2026-04-21 17:31 | -22.78700 | -43.19288 | 1365 ft | 212 kts | 81° |
| 2026-04-21 17:31 | -22.78347 | -43.17636 | 1640 ft | 237 kts | 79° |
| 2026-04-21 17:31 | -22.77964 | -43.15833 | 2105 ft | 255 kts | 79° |
| 2026-04-21 17:31 | -22.77556 | -43.13928 | 2844 ft | 262 kts | 78° |
| 2026-04-21 17:32 | -22.77281 | -43.12636 | 3363 ft | 268 kts | 77° |
| 2026-04-21 17:32 | -22.76715 | -43.09981 | 4514 ft | 272 kts | 77° |
| 2026-04-21 17:32 | -22.76295 | -43.07996 | 5378 ft | 276 kts | 77° |
| 2026-04-21 17:32 | -22.75863 | -43.05958 | 6228 ft | 280 kts | 77° |
| 2026-04-21 17:33 | -22.75426 | -43.03888 | 7015 ft | 284 kts | 77° |
| 2026-04-21 17:33 | -22.74909 | -43.01827 | 7839 ft | 285 kts | 64° |
| 2026-04-21 17:33 | -22.73674 | -43.00162 | 8558 ft | 290 kts | 34° |
| 2026-04-21 17:33 | -22.71819 | -42.99314 | 9238 ft | 293 kts | 7° |
| 2026-04-21 17:34 | -22.69799 | -42.99478 | 10000 ft | 294 kts | 340° |
| 2026-04-21 17:34 | -22.67938 | -43.00412 | 10641 ft | 298 kts | 334° |
| 2026-04-21 17:34 | -22.65898 | -43.00825 | 11284 ft | 305 kts | 6° |
| 2026-04-21 17:34 | -22.63824 | -43.00298 | 11956 ft | 310 kts | 20° |
| 2026-04-21 17:35 | -22.61815 | -42.99398 | 12603 ft | 315 kts | 25° |
| 2026-04-21 17:35 | -22.59876 | -42.98405 | 13359 ft | 315 kts | 26° |
| 2026-04-21 17:37 | -22.58515 | -42.97689 | 13833 ft | 318 kts | 27° |
| 2026-04-21 17:37 | -22.56506 | -42.96632 | 14403 ft | 323 kts | 27° |
| 2026-04-21 17:37 | -22.55162 | -42.95931 | 14825 ft | 324 kts | 27° |
| 2026-04-21 17:37 | -22.52436 | -42.94525 | 15712 ft | 326 kts | 26° |
| 2026-04-21 17:38 | -22.50370 | -42.93470 | 16321 ft | 329 kts | 26° |
| 2026-04-21 17:38 | -22.48305 | -42.92425 | 16933 ft | 333 kts | 26° |
| 2026-04-21 17:38 | -22.46186 | -42.91358 | 17566 ft | 335 kts | 26° |
| 2026-04-21 17:38 | -22.44057 | -42.90289 | 18138 ft | 341 kts | 26° |
| 2026-04-21 17:39 | -22.41841 | -42.89178 | 18275 ft | 360 kts | 25° |
| 2026-04-21 17:39 | -22.39522 | -42.88018 | 18522 ft | 372 kts | 25° |
| 2026-04-21 17:39 | -22.37155 | -42.86835 | 18973 ft | 377 kts | 25° |
| 2026-04-21 17:39 | -22.34765 | -42.85643 | 19509 ft | 378 kts | 25° |
| 2026-04-21 17:40 | -22.32370 | -42.84449 | 20048 ft | 380 kts | 25° |
| 2026-04-21 17:40 | -22.29987 | -42.83262 | 20540 ft | 383 kts | 25° |
| 2026-04-21 17:40 | -22.27553 | -42.82049 | 21033 ft | 386 kts | 25° |
| 2026-04-21 17:40 | -22.25101 | -42.80829 | 21525 ft | 390 kts | 24° |
| 2026-04-21 17:41 | -22.22631 | -42.79599 | 22008 ft | 392 kts | 24° |
| 2026-04-21 17:41 | -22.20143 | -42.78362 | 22513 ft | 395 kts | 24° |
| 2026-04-21 17:41 | -22.18483 | -42.77536 | 22843 ft | 397 kts | 24° |
| 2026-04-21 17:41 | -22.15967 | -42.76285 | 23312 ft | 400 kts | 24° |
| 2026-04-21 17:42 | -22.13515 | -42.75070 | 23734 ft | 402 kts | 23° |
| 2026-04-21 17:42 | -22.10971 | -42.73817 | 23996 ft | 403 kts | 24° |
| 2026-04-21 17:42 | -22.08411 | -42.72551 | 24146 ft | 407 kts | 24° |
| 2026-04-21 17:42 | -22.05827 | -42.71272 | 24342 ft | 409 kts | 24° |
| 2026-04-21 17:43 | -22.03225 | -42.69981 | 24588 ft | 410 kts | 24° |
| 2026-04-21 17:43 | -22.00630 | -42.68693 | 24822 ft | 411 kts | 23° |
| 2026-04-21 17:43 | -21.98060 | -42.67418 | 25040 ft | 413 kts | 23° |
| 2026-04-21 17:43 | -21.95410 | -42.66104 | 25245 ft | 415 kts | 23° |
| 2026-04-21 17:44 | -21.92815 | -42.64818 | 25455 ft | 417 kts | 23° |
| 2026-04-21 17:44 | -21.90178 | -42.63512 | 25658 ft | 418 kts | 23° |
| 2026-04-21 17:44 | -21.87527 | -42.62200 | 25871 ft | 420 kts | 23° |
| 2026-04-21 17:44 | -21.84858 | -42.60879 | 26072 ft | 422 kts | 23° |
| 2026-04-21 17:45 | -21.82185 | -42.59557 | 26251 ft | 424 kts | 23° |
| 2026-04-21 17:45 | -21.79502 | -42.58230 | 26440 ft | 425 kts | 23° |
| 2026-04-21 17:45 | -21.76809 | -42.56899 | 26633 ft | 427 kts | 23° |
| 2026-04-21 17:45 | -21.74110 | -42.55566 | 26826 ft | 428 kts | 23° |
| 2026-04-21 17:46 | -21.71397 | -42.54226 | 27002 ft | 429 kts | 23° |
| 2026-04-21 17:46 | -21.68666 | -42.52878 | 27184 ft | 431 kts | 23° |
| 2026-04-21 17:46 | -21.65938 | -42.51532 | 27355 ft | 432 kts | 23° |
| 2026-04-21 17:46 | -21.63198 | -42.50181 | 27532 ft | 433 kts | 23° |
| 2026-04-21 17:47 | -21.60451 | -42.48827 | 27699 ft | 435 kts | 23° |
| 2026-04-21 17:47 | -21.57720 | -42.47481 | 27862 ft | 436 kts | 23° |
| 2026-04-21 17:47 | -21.54957 | -42.46120 | 28032 ft | 437 kts | 22° |
| 2026-04-21 17:47 | -21.52187 | -42.44756 | 28180 ft | 439 kts | 22° |
| 2026-04-21 17:48 | -21.49402 | -42.43386 | 28334 ft | 440 kts | 22° |
| 2026-04-21 17:48 | -21.46640 | -42.42027 | 28487 ft | 441 kts | 23° |
| 2026-04-21 17:48 | -21.43843 | -42.40651 | 28645 ft | 442 kts | 22° |
| 2026-04-21 17:48 | -21.41039 | -42.39273 | 28765 ft | 444 kts | 23° |
| 2026-04-21 17:49 | -21.38221 | -42.37889 | 28891 ft | 446 kts | 22° |
| 2026-04-21 17:49 | -21.35393 | -42.36500 | 29033 ft | 447 kts | 22° |
| 2026-04-21 17:49 | -21.32565 | -42.35111 | 29187 ft | 448 kts | 22° |
| 2026-04-21 17:49 | -21.29731 | -42.33721 | 29318 ft | 449 kts | 22° |
| 2026-04-21 17:50 | -21.26885 | -42.32325 | 29435 ft | 450 kts | 23° |
| 2026-04-21 17:50 | -21.24036 | -42.30929 | 29554 ft | 451 kts | 23° |
| 2026-04-21 17:50 | -21.21167 | -42.29523 | 29717 ft | 456 kts | 22° |
| 2026-04-21 17:50 | -21.18278 | -42.28108 | 30063 ft | 457 kts | 22° |
| 2026-04-21 17:51 | -21.15376 | -42.26686 | 30392 ft | 458 kts | 22° |
| 2026-04-21 17:51 | -21.12507 | -42.25282 | 30659 ft | 460 kts | 22° |
| 2026-04-21 17:51 | -21.09581 | -42.23850 | 30880 ft | 463 kts | 23° |
| 2026-04-21 17:51 | -21.06642 | -42.22413 | 31088 ft | 466 kts | 22° |
| 2026-04-21 17:52 | -21.03685 | -42.20968 | 31350 ft | 467 kts | 23° |
| 2026-04-21 17:52 | -21.00721 | -42.19520 | 31603 ft | 469 kts | 23° |
| 2026-04-21 17:52 | -20.97747 | -42.18067 | 31816 ft | 472 kts | 23° |
| 2026-04-21 17:52 | -20.94747 | -42.16602 | 32037 ft | 474 kts | 23° |
| 2026-04-21 17:53 | -20.91729 | -42.15130 | 32256 ft | 477 kts | 23° |
| 2026-04-21 17:53 | -20.88710 | -42.13657 | 32483 ft | 478 kts | 23° |
| 2026-04-21 17:53 | -20.85672 | -42.12176 | 32702 ft | 480 kts | 23° |
| 2026-04-21 17:53 | -20.82624 | -42.10691 | 32895 ft | 482 kts | 23° |
| 2026-04-21 17:54 | -20.79565 | -42.09201 | 33127 ft | 484 kts | 23° |
| 2026-04-21 17:54 | -20.76650 | -42.07781 | 33332 ft | 485 kts | 23° |
| 2026-04-21 17:54 | -20.73575 | -42.06284 | 33590 ft | 485 kts | 23° |
| 2026-04-21 17:54 | -20.70501 | -42.04788 | 33882 ft | 485 kts | 23° |
| 2026-04-21 17:55 | -20.67432 | -42.03295 | 34164 ft | 484 kts | 23° |
| 2026-04-21 17:55 | -20.64363 | -42.01804 | 34357 ft | 485 kts | 23° |
| 2026-04-21 17:55 | -20.61311 | -42.00247 | 34549 ft | 487 kts | 28° |
| 2026-04-21 17:55 | -20.58380 | -41.98418 | 34803 ft | 486 kts | 31° |
| 2026-04-21 17:56 | -20.55507 | -41.96499 | 34986 ft | 488 kts | 32° |
| 2026-04-21 17:56 | -20.52647 | -41.94544 | 35145 ft | 489 kts | 32° |
| 2026-04-21 17:56 | -20.49783 | -41.92581 | 35357 ft | 490 kts | 32° |
| 2026-04-21 17:56 | -20.46909 | -41.90626 | 35585 ft | 490 kts | 32° |
| 2026-04-21 17:57 | -20.44055 | -41.88703 | 35765 ft | 490 kts | 32° |
| 2026-04-21 17:57 | -20.41162 | -41.86771 | 35976 ft | 490 kts | 32° |
| 2026-04-21 17:57 | -20.38266 | -41.84847 | 36214 ft | 490 kts | 32° |
| 2026-04-21 17:57 | -20.35372 | -41.82930 | 36410 ft | 490 kts | 32° |
| 2026-04-21 17:58 | -20.32468 | -41.81010 | 36555 ft | 492 kts | 32° |
| 2026-04-21 17:58 | -20.29561 | -41.79089 | 36785 ft | 491 kts | 32° |
| 2026-04-21 17:58 | -20.26662 | -41.77174 | 36964 ft | 491 kts | 32° |
| 2026-04-21 17:58 | -20.23746 | -41.75247 | 37059 ft | 493 kts | 32° |
| 2026-04-21 17:59 | -20.17881 | -41.71372 | 37061 ft | 496 kts | 32° |
| 2026-04-21 17:59 | -20.12025 | -41.67508 | 37045 ft | 494 kts | 32° |
| 2026-04-21 18:00 | -20.06237 | -41.63689 | 37056 ft | 492 kts | 32° |
| 2026-04-21 18:00 | -20.00428 | -41.59862 | 37044 ft | 490 kts | 32° |
| 2026-04-21 18:01 | -19.94633 | -41.56048 | 37038 ft | 489 kts | 33° |
| 2026-04-21 18:01 | -19.88844 | -41.52240 | 37039 ft | 488 kts | 32° |
| 2026-04-21 18:02 | -19.83069 | -41.48444 | 37033 ft | 488 kts | 33° |
| 2026-04-21 18:02 | -19.77298 | -41.44654 | 37026 ft | 488 kts | 33° |
| 2026-04-21 18:03 | -19.71552 | -41.40884 | 37028 ft | 489 kts | 33° |
| 2026-04-21 18:03 | -19.65749 | -41.37081 | 37030 ft | 490 kts | 33° |
| 2026-04-21 18:04 | -19.59927 | -41.33267 | 37038 ft | 491 kts | 32° |
| 2026-04-21 18:04 | -19.54098 | -41.29453 | 37022 ft | 493 kts | 33° |
| 2026-04-21 18:05 | -19.48293 | -41.25658 | 37027 ft | 493 kts | 33° |
| 2026-04-21 18:05 | -19.42443 | -41.21836 | 37022 ft | 494 kts | 33° |
| 2026-04-21 18:06 | -19.36594 | -41.18019 | 37024 ft | 494 kts | 33° |
| 2026-04-21 18:06 | -19.30734 | -41.14197 | 37016 ft | 494 kts | 33° |
| 2026-04-21 18:07 | -19.24889 | -41.10389 | 37025 ft | 493 kts | 33° |
| 2026-04-21 18:07 | -19.19048 | -41.06586 | 37024 ft | 492 kts | 33° |
| 2026-04-21 18:08 | -19.13243 | -41.02810 | 37026 ft | 492 kts | 33° |
| 2026-04-21 18:08 | -19.07415 | -40.99022 | 37027 ft | 491 kts | 33° |
| 2026-04-21 18:09 | -19.01599 | -40.95245 | 37030 ft | 490 kts | 33° |
| 2026-04-21 18:09 | -18.95786 | -40.91474 | 37036 ft | 489 kts | 33° |
| 2026-04-21 18:10 | -18.89984 | -40.87715 | 37019 ft | 488 kts | 33° |
| 2026-04-21 18:10 | -18.84240 | -40.83990 | 37025 ft | 486 kts | 33° |
| 2026-04-21 18:11 | -18.78473 | -40.80258 | 37020 ft | 486 kts | 33° |
| 2026-04-21 18:11 | -18.72709 | -40.76530 | 37028 ft | 486 kts | 33° |
| 2026-04-21 18:12 | -18.66931 | -40.72797 | 37015 ft | 485 kts | 33° |
| 2026-04-21 18:12 | -18.61205 | -40.69099 | 37029 ft | 485 kts | 33° |
| 2026-04-21 18:13 | -18.55456 | -40.65390 | 37018 ft | 484 kts | 33° |
| 2026-04-21 18:13 | -18.49700 | -40.61679 | 37015 ft | 484 kts | 33° |
| 2026-04-21 18:14 | -18.41093 | -40.56136 | 37015 ft | 483 kts | 33° |
| 2026-04-21 18:15 | -18.35402 | -40.52474 | 37025 ft | 483 kts | 33° |
| 2026-04-21 18:15 | -18.29665 | -40.48786 | 36800 ft | 486 kts | 33° |
| 2026-04-21 18:15 | -18.26761 | -40.46919 | 36278 ft | 488 kts | 33° |
| 2026-04-21 18:16 | -18.23865 | -40.45059 | 35728 ft | 487 kts | 33° |
| 2026-04-21 18:16 | -18.20970 | -40.43201 | 35134 ft | 487 kts | 33° |
| 2026-04-21 18:16 | -18.18071 | -40.41341 | 34506 ft | 489 kts | 33° |
| 2026-04-21 18:16 | -18.15192 | -40.39494 | 33848 ft | 491 kts | 33° |
| 2026-04-21 18:17 | -18.12269 | -40.37619 | 33137 ft | 492 kts | 33° |
| 2026-04-21 18:17 | -18.09344 | -40.35744 | 32466 ft | 492 kts | 33° |
| 2026-04-21 18:17 | -18.06421 | -40.33871 | 31774 ft | 493 kts | 33° |
| 2026-04-21 18:17 | -18.03493 | -40.31996 | 31236 ft | 490 kts | 33° |
| 2026-04-21 18:18 | -18.00597 | -40.30143 | 30751 ft | 486 kts | 33° |
| 2026-04-21 18:18 | -17.97721 | -40.28303 | 30270 ft | 482 kts | 33° |
| 2026-04-21 18:18 | -17.94868 | -40.26478 | 29717 ft | 478 kts | 33° |
| 2026-04-21 18:18 | -17.92037 | -40.24669 | 29195 ft | 474 kts | 33° |
| 2026-04-21 18:19 | -17.89269 | -40.22899 | 28678 ft | 469 kts | 33° |
| 2026-04-21 18:19 | -17.86491 | -40.21124 | 28185 ft | 464 kts | 33° |
| 2026-04-21 18:19 | -17.83747 | -40.19371 | 27684 ft | 460 kts | 33° |
| 2026-04-21 18:19 | -17.81027 | -40.17635 | 27215 ft | 455 kts | 33° |
| 2026-04-21 18:20 | -17.78327 | -40.15911 | 26736 ft | 451 kts | 33° |
| 2026-04-21 18:20 | -17.75653 | -40.14205 | 26259 ft | 447 kts | 33° |
| 2026-04-21 18:20 | -17.73001 | -40.12513 | 25800 ft | 444 kts | 33° |
| 2026-04-21 18:20 | -17.70363 | -40.10830 | 25317 ft | 441 kts | 33° |
| 2026-04-21 18:21 | -17.67755 | -40.09167 | 24847 ft | 438 kts | 34° |
| 2026-04-21 18:21 | -17.65153 | -40.07509 | 24357 ft | 436 kts | 34° |
| 2026-04-21 18:21 | -17.62571 | -40.05864 | 23889 ft | 433 kts | 34° |
| 2026-04-21 18:21 | -17.60006 | -40.04230 | 23386 ft | 431 kts | 34° |
| 2026-04-21 18:22 | -17.57489 | -40.02628 | 22926 ft | 426 kts | 33° |
| 2026-04-21 18:22 | -17.54964 | -40.01020 | 22417 ft | 423 kts | 33° |
| 2026-04-21 18:22 | -17.52455 | -39.99424 | 21951 ft | 419 kts | 33° |
| 2026-04-21 18:22 | -17.49973 | -39.97845 | 21493 ft | 415 kts | 33° |
| 2026-04-21 18:23 | -17.47510 | -39.96278 | 21035 ft | 412 kts | 33° |
| 2026-04-21 18:23 | -17.45072 | -39.94728 | 20596 ft | 408 kts | 33° |
| 2026-04-21 18:23 | -17.42647 | -39.93202 | 20131 ft | 405 kts | 31° |
| 2026-04-21 18:23 | -17.40164 | -39.91780 | 19570 ft | 407 kts | 29° |
| 2026-04-21 18:24 | -17.37652 | -39.90429 | 19075 ft | 405 kts | 28° |
| 2026-04-21 18:24 | -17.35135 | -39.89099 | 18632 ft | 402 kts | 28° |
| 2026-04-21 18:24 | -17.32643 | -39.87778 | 18155 ft | 400 kts | 28° |
| 2026-04-21 18:24 | -17.30178 | -39.86462 | 17667 ft | 396 kts | 28° |
| 2026-04-21 18:25 | -17.27739 | -39.85150 | 17216 ft | 392 kts | 28° |
| 2026-04-21 18:25 | -17.25326 | -39.83846 | 16770 ft | 388 kts | 28° |
| 2026-04-21 18:25 | -17.22973 | -39.82570 | 16343 ft | 384 kts | 27° |
| 2026-04-21 18:25 | -17.20584 | -39.81275 | 15910 ft | 380 kts | 27° |
| 2026-04-21 18:26 | -17.18279 | -39.80025 | 15492 ft | 376 kts | 27° |
| 2026-04-21 18:26 | -17.15962 | -39.78769 | 15070 ft | 373 kts | 27° |
| 2026-04-21 18:26 | -17.13666 | -39.77525 | 14651 ft | 369 kts | 27° |
| 2026-04-21 18:26 | -17.11391 | -39.76292 | 14240 ft | 366 kts | 27° |
| 2026-04-21 18:27 | -17.09136 | -39.75071 | 13822 ft | 363 kts | 27° |
| 2026-04-21 18:27 | -17.07648 | -39.74265 | 13508 ft | 362 kts | 26° |
| 2026-04-21 18:27 | -17.05424 | -39.73062 | 13066 ft | 359 kts | 26° |
| 2026-04-21 18:27 | -17.03218 | -39.71868 | 12647 ft | 355 kts | 26° |
| 2026-04-21 18:28 | -17.01053 | -39.70643 | 12235 ft | 352 kts | 30° |
| 2026-04-21 18:28 | -16.98962 | -39.69343 | 11837 ft | 348 kts | 31° |
| 2026-04-21 18:28 | -16.96902 | -39.68026 | 11440 ft | 345 kts | 31° |
| 2026-04-21 18:28 | -16.94864 | -39.66720 | 11045 ft | 342 kts | 31° |
| 2026-04-21 18:29 | -16.92840 | -39.65431 | 10650 ft | 340 kts | 31° |
| 2026-04-21 18:29 | -16.90837 | -39.64162 | 10460 ft | 331 kts | 31° |
| 2026-04-21 18:29 | -16.88894 | -39.62937 | 10303 ft | 321 kts | 31° |
| 2026-04-21 18:29 | -16.87008 | -39.61750 | 10165 ft | 312 kts | 31° |
| 2026-04-21 18:30 | -16.85177 | -39.60600 | 10010 ft | 304 kts | 31° |
| 2026-04-21 18:30 | -16.83372 | -39.59467 | 9695 ft | 302 kts | 31° |
| 2026-04-21 18:30 | -16.81577 | -39.58341 | 9380 ft | 300 kts | 31° |
| 2026-04-21 18:30 | -16.79818 | -39.57237 | 9075 ft | 297 kts | 31° |
| 2026-04-21 18:31 | -16.78048 | -39.56127 | 8766 ft | 296 kts | 31° |
| 2026-04-21 18:31 | -16.76298 | -39.55024 | 8518 ft | 291 kts | 32° |
| 2026-04-21 18:31 | -16.75989 | -39.54825 | 8482 ft | 290 kts | 32° |
| 2026-04-21 18:31 | -16.74622 | -39.53972 | 8189 ft | 291 kts | 31° |
| 2026-04-21 18:32 | -16.72922 | -39.52841 | 7899 ft | 289 kts | 36° |
| 2026-04-21 18:32 | -16.71313 | -39.51587 | 7596 ft | 288 kts | 39° |
| 2026-04-21 18:32 | -16.69738 | -39.50312 | 7284 ft | 286 kts | 39° |
| 2026-04-21 18:32 | -16.68168 | -39.49038 | 7007 ft | 285 kts | 39° |
| 2026-04-21 18:33 | -16.66598 | -39.47775 | 6707 ft | 285 kts | 39° |
| 2026-04-21 18:33 | -16.65030 | -39.46520 | 6406 ft | 284 kts | 39° |
| 2026-04-21 18:33 | -16.63461 | -39.45270 | 6085 ft | 283 kts | 39° |
| 2026-04-21 18:33 | -16.61899 | -39.44030 | 5780 ft | 282 kts | 40° |
| 2026-04-21 18:34 | -16.60338 | -39.42793 | 5491 ft | 280 kts | 39° |
| 2026-04-21 18:34 | -16.58806 | -39.41581 | 5201 ft | 279 kts | 39° |
| 2026-04-21 18:34 | -16.57256 | -39.40356 | 4915 ft | 279 kts | 40° |
| 2026-04-21 18:34 | -16.55710 | -39.39134 | 4609 ft | 279 kts | 39° |
| 2026-04-21 18:35 | -16.54667 | -39.38309 | 4407 ft | 278 kts | 40° |
| 2026-04-21 18:35 | -16.52629 | -39.36701 | 4142 ft | 275 kts | 39° |
| 2026-04-21 18:35 | -16.51314 | -39.35327 | 3987 ft | 262 kts | 63° |
| 2026-04-21 18:35 | -16.50674 | -39.33617 | 3782 ft | 247 kts | 77° |
| 2026-04-21 18:36 | -16.50234 | -39.31925 | 3587 ft | 234 kts | 78° |
| 2026-04-21 18:36 | -16.49820 | -39.30344 | 3392 ft | 219 kts | 78° |
| 2026-04-21 18:36 | -16.49428 | -39.28872 | 3194 ft | 202 kts | 79° |
| 2026-04-21 18:36 | -16.49068 | -39.27523 | 3037 ft | 186 kts | 78° |
| 2026-04-21 18:37 | -16.48743 | -39.26314 | 2913 ft | 166 kts | 79° |
| 2026-04-21 18:37 | -16.48452 | -39.25224 | 2814 ft | 150 kts | 80° |
| 2026-04-21 18:37 | -16.48169 | -39.24153 | 2668 ft | 154 kts | 78° |
| 2026-04-21 18:37 | -16.47882 | -39.23083 | 2509 ft | 151 kts | 79° |
| 2026-04-21 18:38 | -16.47605 | -39.22045 | 2395 ft | 145 kts | 79° |
| 2026-04-21 18:38 | -16.47334 | -39.21038 | 2277 ft | 144 kts | 81° |
| 2026-04-21 18:38 | -16.47065 | -39.20033 | 2151 ft | 144 kts | 78° |
| 2026-04-21 18:38 | -16.46793 | -39.19016 | 2032 ft | 147 kts | 79° |
| 2026-04-21 18:39 | -16.46517 | -39.17992 | 1938 ft | 146 kts | 79° |
| 2026-04-21 18:39 | -16.46242 | -39.16967 | 1699 ft | 149 kts | 79° |
| 2026-04-21 18:39 | -16.45964 | -39.15950 | 1559 ft | 143 kts | 79° |
| 2026-04-21 18:39 | -16.45696 | -39.14951 | 1370 ft | 143 kts | 78° |
| 2026-04-21 18:40 | -16.45433 | -39.13975 | 1186 ft | 136 kts | 77° |
| 2026-04-21 18:40 | -16.45175 | -39.13015 | 1001 ft | 138 kts | 76° |
| 2026-04-21 18:40 | -16.44996 | -39.12374 | 915 ft | 139 kts | 77° |
| 2026-04-21 18:40 | -16.44628 | -39.11130 | 671 ft | 132 kts | 81° |
| 2026-04-21 18:41 | -16.44412 | -39.10208 | 461 ft | 132 kts | 77° |
| 2026-04-21 18:41 | -16.44152 | -39.09231 | 264 ft | 143 kts | 77° |
| 2026-04-21 18:41 | -16.43893 | -39.08252 | 160 ft | 131 kts | 77° |
| 2026-04-21 18:41 | -16.43730 | -39.07637 | 161 ft | 42 kts | 74° |
| 2026-04-21 18:42 | -16.43655 | -39.07354 | 161 ft | 39 kts | 75° |
| 2026-04-21 18:42 | -16.43642 | -39.07236 | 160 ft | 13 kts | 116° |
| 2026-04-21 18:42 | -16.43628 | -39.07203 | 159 ft | 2 kts | 338° |
| 2026-04-21 18:42 | -16.43621 | -39.07217 | 159 ft | 3 kts | 285° |
| 2026-04-21 18:43 | -16.43626 | -39.07246 | 160 ft | 7 kts | 256° |
| 2026-04-21 18:43 | -16.43643 | -39.07316 | 161 ft | 13 kts | 255° |
| 2026-04-21 18:43 | -16.43667 | -39.07409 | 162 ft | 13 kts | 253° |
| 2026-04-21 18:43 | -16.43694 | -39.07500 | 162 ft | 13 kts | 255° |
| 2026-04-21 18:44 | -16.43717 | -39.07588 | 161 ft | 13 kts | 255° |
| 2026-04-21 18:44 | -16.43739 | -39.07674 | 161 ft | 12 kts | 254° |
| 2026-04-21 18:44 | -16.43762 | -39.07758 | 161 ft | 12 kts | 254° |
| 2026-04-21 18:44 | -16.43784 | -39.07840 | 160 ft | 12 kts | 253° |
| 2026-04-21 18:45 | -16.43807 | -39.07919 | 159 ft | 11 kts | 253° |
| 2026-04-21 18:46 | -16.43862 | -39.08108 | 158 ft | 3 kts | 252° |
| 2026-04-21 18:46 | -16.43881 | -39.08134 | 159 ft | 6 kts | 217° |
| 2026-04-21 18:46 | -16.43928 | -39.08133 | 159 ft | 7 kts | 163° |
| 2026-04-21 18:46 | -16.43974 | -39.08120 | 159 ft | 7 kts | 166° |
| 2026-04-21 18:47 | -16.44020 | -39.08107 | 159 ft | 7 kts | 164° |
| 2026-04-21 18:47 | -16.44058 | -39.08096 | 159 ft | 2 kts | 164° |
| 2026-04-21 18:47 | -16.44060 | -39.08095 | 159 ft | 0 kts | 165° |